Terminal Aerodrome Forecast
Issued by NWS

Home | Current Version | Previous Version | Graphics & Text | Print | Product List | Glossary On
Versions: 1 2 3 4 5 6 7 8 9 10 11 12 13 14
482
FTUS42 KMHX 221001 AAA
TAFISO
TAF AMD
KISO 221001Z 2210/2306 00000KT 3SM BR SCT003
      TEMPO 2210/2213 1SM BR BKN003
     FM221300 00000KT P6SM FEW250
     FM230400 00000KT 5SM BR FEW250
      AMD LTD TO CLD VIS AND WIND=

USA.gov is the U.S. government's official web portal to all federal, state and local government web resources and services.